sensor_id;sensor_type;location;lat;lon;timestamp;temperature;humidity
65231;DHT22;51813;40.666;16.602;2022-12-18T00:00:43;17.60;63.50
65231;DHT22;51813;40.666;16.602;2022-12-18T00:03:09;17.60;63.50
65231;DHT22;51813;40.666;16.602;2022-12-18T00:05:35;17.60;63.50
65231;DHT22;51813;40.666;16.602;2022-12-18T00:08:02;17.50;63.20
65231;DHT22;51813;40.666;16.602;2022-12-18T00:10:28;17.60;63.30
65231;DHT22;51813;40.666;16.602;2022-12-18T00:12:54;17.50;63.20
65231;DHT22;51813;40.666;16.602;2022-12-18T00:15:20;17.50;63.00
65231;DHT22;51813;40.666;16.602;2022-12-18T00:17:46;17.50;62.80
65231;DHT22;51813;40.666;16.602;2022-12-18T00:20:12;17.50;62.80
65231;DHT22;51813;40.666;16.602;2022-12-18T00:22:37;17.50;62.70
65231;DHT22;51813;40.666;16.602;2022-12-18T00:25:03;17.50;62.70
65231;DHT22;51813;40.666;16.602;2022-12-18T00:27:29;17.50;62.60
65231;DHT22;51813;40.666;16.602;2022-12-18T00:29:55;17.50;63.40
65231;DHT22;51813;40.666;16.602;2022-12-18T00:32:20;17.40;62.20
65231;DHT22;51813;40.666;16.602;2022-12-18T00:34:46;17.40;62.70
65231;DHT22;51813;40.666;16.602;2022-12-18T00:37:11;17.40;62.40
65231;DHT22;51813;40.666;16.602;2022-12-18T00:39:37;17.40;62.30
65231;DHT22;51813;40.666;16.602;2022-12-18T00:42:03;17.40;62.30
65231;DHT22;51813;40.666;16.602;2022-12-18T00:44:47;17.40;62.30
65231;DHT22;51813;40.666;16.602;2022-12-18T00:47:13;17.40;62.10
65231;DHT22;51813;40.666;16.602;2022-12-18T00:49:38;17.40;62.40
65231;DHT22;51813;40.666;16.602;2022-12-18T00:52:04;17.50;62.10
65231;DHT22;51813;40.666;16.602;2022-12-18T00:54:30;17.50;61.90
65231;DHT22;51813;40.666;16.602;2022-12-18T00:56:55;17.40;61.80
65231;DHT22;51813;40.666;16.602;2022-12-18T00:59:21;17.40;61.80
65231;DHT22;51813;40.666;16.602;2022-12-18T01:01:47;17.50;61.90
65231;DHT22;51813;40.666;16.602;2022-12-18T01:04:13;17.50;61.90
65231;DHT22;51813;40.666;16.602;2022-12-18T01:06:39;17.40;61.80
65231;DHT22;51813;40.666;16.602;2022-12-18T01:09:05;17.40;61.90
65231;DHT22;51813;40.666;16.602;2022-12-18T01:11:31;17.40;62.00
65231;DHT22;51813;40.666;16.602;2022-12-18T01:13:57;17.40;62.10
65231;DHT22;51813;40.666;16.602;2022-12-18T01:16:25;17.40;62.20
65231;DHT22;51813;40.666;16.602;2022-12-18T01:18:52;17.40;62.20
65231;DHT22;51813;40.666;16.602;2022-12-18T01:21:19;17.40;61.90
65231;DHT22;51813;40.666;16.602;2022-12-18T01:23:45;17.40;62.10
65231;DHT22;51813;40.666;16.602;2022-12-18T01:26:13;17.40;61.90
65231;DHT22;51813;40.666;16.602;2022-12-18T01:28:40;17.40;61.80
65231;DHT22;51813;40.666;16.602;2022-12-18T01:31:19;17.30;61.80
65231;DHT22;51813;40.666;16.602;2022-12-18T01:33:49;17.20;62.20
65231;DHT22;51813;40.666;16.602;2022-12-18T01:36:23;17.20;62.20
65231;DHT22;51813;40.666;16.602;2022-12-18T01:38:50;17.30;61.80
65231;DHT22;51813;40.666;16.602;2022-12-18T01:41:17;17.30;61.60
65231;DHT22;51813;40.666;16.602;2022-12-18T01:43:47;17.30;61.60
65231;DHT22;51813;40.666;16.602;2022-12-18T01:46:14;17.30;61.60
65231;DHT22;51813;40.666;16.602;2022-12-18T01:48:40;17.30;61.70
65231;DHT22;51813;40.666;16.602;2022-12-18T01:51:08;17.30;61.90
65231;DHT22;51813;40.666;16.602;2022-12-18T01:53:36;17.20;61.30
65231;DHT22;51813;40.666;16.602;2022-12-18T01:56:02;17.20;61.50
65231;DHT22;51813;40.666;16.602;2022-12-18T01:58:39;17.20;61.30
65231;DHT22;51813;40.666;16.602;2022-12-18T02:01:06;17.10;61.80
65231;DHT22;51813;40.666;16.602;2022-12-18T02:03:32;17.10;61.70
65231;DHT22;51813;40.666;16.602;2022-12-18T02:06:09;17.10;61.90
65231;DHT22;51813;40.666;16.602;2022-12-18T02:08:48;17.10;61.50
65231;DHT22;51813;40.666;16.602;2022-12-18T02:11:40;17.10;61.60
65231;DHT22;51813;40.666;16.602;2022-12-18T02:20:22;17.20;61.80
65231;DHT22;51813;40.666;16.602;2022-12-18T02:28:02;17.20;61.40
65231;DHT22;51813;40.666;16.602;2022-12-18T02:30:31;17.20;61.70
65231;DHT22;51813;40.666;16.602;2022-12-18T02:32:59;17.20;61.70
65231;DHT22;51813;40.666;16.602;2022-12-18T02:35:29;17.20;61.70
65231;DHT22;51813;40.666;16.602;2022-12-18T02:37:56;17.30;61.40
65231;DHT22;51813;40.666;16.602;2022-12-18T02:40:24;17.30;61.40
65231;DHT22;51813;40.666;16.602;2022-12-18T02:42:51;17.30;61.30
65231;DHT22;51813;40.666;16.602;2022-12-18T02:45:17;17.30;61.90
65231;DHT22;51813;40.666;16.602;2022-12-18T02:47:46;17.20;61.40
65231;DHT22;51813;40.666;16.602;2022-12-18T02:55:44;17.20;61.70
65231;DHT22;51813;40.666;16.602;2022-12-18T02:58:40;17.10;62.00
65231;DHT22;51813;40.666;16.602;2022-12-18T03:01:40;17.10;62.30
65231;DHT22;51813;40.666;16.602;2022-12-18T03:04:20;17.00;62.70
65231;DHT22;51813;40.666;16.602;2022-12-18T03:06:50;17.00;62.70
65231;DHT22;51813;40.666;16.602;2022-12-18T03:09:22;17.10;62.40
65231;DHT22;51813;40.666;16.602;2022-12-18T03:12:05;17.10;62.20
65231;DHT22;51813;40.666;16.602;2022-12-18T03:15:04;17.10;62.20
65231;DHT22;51813;40.666;16.602;2022-12-18T03:17:33;17.00;62.30
65231;DHT22;51813;40.666;16.602;2022-12-18T03:20:06;17.00;62.50
65231;DHT22;51813;40.666;16.602;2022-12-18T03:22:34;17.00;62.70
65231;DHT22;51813;40.666;16.602;2022-12-18T03:25:04;17.00;62.60
65231;DHT22;51813;40.666;16.602;2022-12-18T03:27:33;17.00;62.70
65231;DHT22;51813;40.666;16.602;2022-12-18T03:30:05;17.00;62.50
65231;DHT22;51813;40.666;16.602;2022-12-18T03:35:12;17.00;62.50
65231;DHT22;51813;40.666;16.602;2022-12-18T03:37:39;17.00;62.40
65231;DHT22;51813;40.666;16.602;2022-12-18T03:40:06;17.00;62.40
65231;DHT22;51813;40.666;16.602;2022-12-18T03:42:56;17.00;62.60
65231;DHT22;51813;40.666;16.602;2022-12-18T03:45:32;17.00;62.80
65231;DHT22;51813;40.666;16.602;2022-12-18T03:51:39;16.90;63.00
65231;DHT22;51813;40.666;16.602;2022-12-18T03:56:21;17.00;62.80
65231;DHT22;51813;40.666;16.602;2022-12-18T03:58:50;17.00;62.70
65231;DHT22;51813;40.666;16.602;2022-12-18T04:01:18;17.00;62.70
65231;DHT22;51813;40.666;16.602;2022-12-18T04:03:46;17.00;62.60
65231;DHT22;51813;40.666;16.602;2022-12-18T04:06:14;17.00;62.40
65231;DHT22;51813;40.666;16.602;2022-12-18T04:08:41;17.00;62.60
65231;DHT22;51813;40.666;16.602;2022-12-18T04:11:06;17.00;62.60
65231;DHT22;51813;40.666;16.602;2022-12-18T04:13:35;17.00;62.60
65231;DHT22;51813;40.666;16.602;2022-12-18T04:16:01;17.00;62.80
65231;DHT22;51813;40.666;16.602;2022-12-18T04:18:27;17.00;62.70
65231;DHT22;51813;40.666;16.602;2022-12-18T04:20:53;17.00;62.70
65231;DHT22;51813;40.666;16.602;2022-12-18T04:23:18;17.00;62.60
65231;DHT22;51813;40.666;16.602;2022-12-18T04:25:45;17.00;62.70
65231;DHT22;51813;40.666;16.602;2022-12-18T04:28:10;17.00;62.80
65231;DHT22;51813;40.666;16.602;2022-12-18T04:30:36;17.00;62.70
65231;DHT22;51813;40.666;16.602;2022-12-18T04:33:02;17.00;62.80
65231;DHT22;51813;40.666;16.602;2022-12-18T04:35:27;17.00;62.70
65231;DHT22;51813;40.666;16.602;2022-12-18T04:37:53;17.00;62.80
65231;DHT22;51813;40.666;16.602;2022-12-18T04:40:19;17.00;62.80
65231;DHT22;51813;40.666;16.602;2022-12-18T04:42:44;17.00;63.00
65231;DHT22;51813;40.666;16.602;2022-12-18T04:45:10;17.00;62.70
65231;DHT22;51813;40.666;16.602;2022-12-18T04:47:36;17.00;62.80
65231;DHT22;51813;40.666;16.602;2022-12-18T04:50:02;17.00;63.00
65231;DHT22;51813;40.666;16.602;2022-12-18T04:52:27;16.90;63.70
65231;DHT22;51813;40.666;16.602;2022-12-18T04:54:53;16.90;63.20
65231;DHT22;51813;40.666;16.602;2022-12-18T04:57:19;16.90;63.30
65231;DHT22;51813;40.666;16.602;2022-12-18T04:59:44;16.80;63.60
65231;DHT22;51813;40.666;16.602;2022-12-18T05:02:10;16.80;63.50
65231;DHT22;51813;40.666;16.602;2022-12-18T05:04:36;16.80;63.40
65231;DHT22;51813;40.666;16.602;2022-12-18T05:07:02;16.90;63.30
65231;DHT22;51813;40.666;16.602;2022-12-18T05:09:27;16.90;63.10
65231;DHT22;51813;40.666;16.602;2022-12-18T05:11:53;16.90;63.00
65231;DHT22;51813;40.666;16.602;2022-12-18T05:14:19;16.90;62.90
65231;DHT22;51813;40.666;16.602;2022-12-18T05:16:45;16.90;63.00
65231;DHT22;51813;40.666;16.602;2022-12-18T05:19:10;16.90;63.10
65231;DHT22;51813;40.666;16.602;2022-12-18T05:21:36;16.90;63.10
65231;DHT22;51813;40.666;16.602;2022-12-18T05:24:02;16.90;63.90
65231;DHT22;51813;40.666;16.602;2022-12-18T05:26:28;16.90;63.40
65231;DHT22;51813;40.666;16.602;2022-12-18T05:28:53;16.90;63.20
65231;DHT22;51813;40.666;16.602;2022-12-18T05:31:19;16.90;63.10
65231;DHT22;51813;40.666;16.602;2022-12-18T05:33:44;16.90;63.00
65231;DHT22;51813;40.666;16.602;2022-12-18T05:36:10;16.90;63.00
65231;DHT22;51813;40.666;16.602;2022-12-18T05:38:38;16.90;63.30
65231;DHT22;51813;40.666;16.602;2022-12-18T05:41:05;16.80;63.40
65231;DHT22;51813;40.666;16.602;2022-12-18T05:43:34;16.80;63.50
65231;DHT22;51813;40.666;16.602;2022-12-18T05:46:07;16.80;63.30
65231;DHT22;51813;40.666;16.602;2022-12-18T05:48:33;16.90;63.20
65231;DHT22;51813;40.666;16.602;2022-12-18T05:51:04;16.90;63.10
65231;DHT22;51813;40.666;16.602;2022-12-18T05:53:30;16.90;63.00
65231;DHT22;51813;40.666;16.602;2022-12-18T05:56:00;16.90;63.20
65231;DHT22;51813;40.666;16.602;2022-12-18T05:58:26;16.90;63.00
65231;DHT22;51813;40.666;16.602;2022-12-18T06:00:52;16.90;63.20
65231;DHT22;51813;40.666;16.602;2022-12-18T06:03:18;16.90;63.30
65231;DHT22;51813;40.666;16.602;2022-12-18T06:05:44;16.90;63.20
65231;DHT22;51813;40.666;16.602;2022-12-18T06:08:11;16.90;63.00
65231;DHT22;51813;40.666;16.602;2022-12-18T06:10:37;16.90;63.10
65231;DHT22;51813;40.666;16.602;2022-12-18T06:13:04;16.90;63.20
65231;DHT22;51813;40.666;16.602;2022-12-18T06:15:29;16.90;63.20
65231;DHT22;51813;40.666;16.602;2022-12-18T06:17:55;16.90;63.10
65231;DHT22;51813;40.666;16.602;2022-12-18T06:20:21;16.90;63.00
65231;DHT22;51813;40.666;16.602;2022-12-18T06:22:47;16.90;63.30
65231;DHT22;51813;40.666;16.602;2022-12-18T06:25:13;16.90;63.10
65231;DHT22;51813;40.666;16.602;2022-12-18T06:27:39;16.90;63.00
65231;DHT22;51813;40.666;16.602;2022-12-18T06:30:05;16.90;63.00
65231;DHT22;51813;40.666;16.602;2022-12-18T06:32:31;16.90;63.00
65231;DHT22;51813;40.666;16.602;2022-12-18T06:34:56;16.90;63.00
65231;DHT22;51813;40.666;16.602;2022-12-18T06:37:22;16.90;63.10
65231;DHT22;51813;40.666;16.602;2022-12-18T06:39:52;16.90;63.00
65231;DHT22;51813;40.666;16.602;2022-12-18T06:42:18;16.90;63.40
65231;DHT22;51813;40.666;16.602;2022-12-18T06:44:43;16.80;63.50
65231;DHT22;51813;40.666;16.602;2022-12-18T06:47:09;16.80;63.30
65231;DHT22;51813;40.666;16.602;2022-12-18T06:49:35;16.80;63.40
65231;DHT22;51813;40.666;16.602;2022-12-18T06:52:01;16.80;63.10
65231;DHT22;51813;40.666;16.602;2022-12-18T06:54:26;16.80;63.20
65231;DHT22;51813;40.666;16.602;2022-12-18T06:56:52;16.80;63.20
65231;DHT22;51813;40.666;16.602;2022-12-18T06:59:18;16.80;63.10
65231;DHT22;51813;40.666;16.602;2022-12-18T07:01:44;16.80;62.90
65231;DHT22;51813;40.666;16.602;2022-12-18T07:04:10;16.70;62.80
65231;DHT22;51813;40.666;16.602;2022-12-18T07:06:35;16.60;63.10
65231;DHT22;51813;40.666;16.602;2022-12-18T07:09:01;16.70;63.00
65231;DHT22;51813;40.666;16.602;2022-12-18T07:11:27;16.80;62.80
65231;DHT22;51813;40.666;16.602;2022-12-18T07:13:53;16.80;62.70
65231;DHT22;51813;40.666;16.602;2022-12-18T07:16:22;16.80;62.60
65231;DHT22;51813;40.666;16.602;2022-12-18T07:18:47;16.80;62.50
65231;DHT22;51813;40.666;16.602;2022-12-18T07:21:16;16.80;62.60
65231;DHT22;51813;40.666;16.602;2022-12-18T07:23:42;16.80;62.70
65231;DHT22;51813;40.666;16.602;2022-12-18T07:26:10;16.80;63.40
65231;DHT22;51813;40.666;16.602;2022-12-18T07:28:37;16.80;62.90
65231;DHT22;51813;40.666;16.602;2022-12-18T07:31:07;16.70;62.90
65231;DHT22;51813;40.666;16.602;2022-12-18T07:33:34;16.70;63.00
65231;DHT22;51813;40.666;16.602;2022-12-18T07:36:01;16.70;63.30
65231;DHT22;51813;40.666;16.602;2022-12-18T07:38:26;16.70;63.20
65231;DHT22;51813;40.666;16.602;2022-12-18T07:40:52;16.70;63.10
65231;DHT22;51813;40.666;16.602;2022-12-18T07:43:18;16.70;63.10
65231;DHT22;51813;40.666;16.602;2022-12-18T07:45:44;16.70;63.10
65231;DHT22;51813;40.666;16.602;2022-12-18T07:48:09;16.70;63.40
65231;DHT22;51813;40.666;16.602;2022-12-18T07:50:36;16.60;63.60
65231;DHT22;51813;40.666;16.602;2022-12-18T07:53:02;16.60;64.30
65231;DHT22;51813;40.666;16.602;2022-12-18T07:55:31;16.70;63.80
65231;DHT22;51813;40.666;16.602;2022-12-18T07:57:56;16.60;63.60
65231;DHT22;51813;40.666;16.602;2022-12-18T08:00:22;16.70;63.60
65231;DHT22;51813;40.666;16.602;2022-12-18T08:02:48;16.60;63.60
65231;DHT22;51813;40.666;16.602;2022-12-18T08:05:13;16.70;63.60
65231;DHT22;51813;40.666;16.602;2022-12-18T08:07:39;16.70;63.50
65231;DHT22;51813;40.666;16.602;2022-12-18T08:10:06;16.70;63.60
65231;DHT22;51813;40.666;16.602;2022-12-18T08:12:31;16.80;64.10
65231;DHT22;51813;40.666;16.602;2022-12-18T08:14:57;16.80;63.40
65231;DHT22;51813;40.666;16.602;2022-12-18T08:17:23;16.80;63.40
65231;DHT22;51813;40.666;16.602;2022-12-18T08:19:49;16.80;63.50
65231;DHT22;51813;40.666;16.602;2022-12-18T08:22:14;16.70;63.70
65231;DHT22;51813;40.666;16.602;2022-12-18T08:24:40;16.70;63.70
65231;DHT22;51813;40.666;16.602;2022-12-18T08:27:06;16.70;63.80
65231;DHT22;51813;40.666;16.602;2022-12-18T08:29:31;16.80;63.80
65231;DHT22;51813;40.666;16.602;2022-12-18T08:31:57;16.70;63.80
65231;DHT22;51813;40.666;16.602;2022-12-18T08:34:23;16.70;63.90
65231;DHT22;51813;40.666;16.602;2022-12-18T08:36:48;16.70;64.20
65231;DHT22;51813;40.666;16.602;2022-12-18T08:39:14;16.70;64.10
65231;DHT22;51813;40.666;16.602;2022-12-18T08:41:40;16.70;64.20
65231;DHT22;51813;40.666;16.602;2022-12-18T08:44:07;16.70;64.20
65231;DHT22;51813;40.666;16.602;2022-12-18T08:46:52;16.70;64.20
65231;DHT22;51813;40.666;16.602;2022-12-18T08:49:17;16.70;64.30
65231;DHT22;51813;40.666;16.602;2022-12-18T08:51:43;16.70;64.30
65231;DHT22;51813;40.666;16.602;2022-12-18T08:54:11;16.60;64.40
65231;DHT22;51813;40.666;16.602;2022-12-18T08:56:38;16.60;64.50
65231;DHT22;51813;40.666;16.602;2022-12-18T08:59:04;16.60;64.40
65231;DHT22;51813;40.666;16.602;2022-12-18T09:01:30;16.70;64.40
65231;DHT22;51813;40.666;16.602;2022-12-18T09:03:56;16.60;64.50
65231;DHT22;51813;40.666;16.602;2022-12-18T09:06:22;16.60;64.70
65231;DHT22;51813;40.666;16.602;2022-12-18T09:08:48;16.60;64.80
65231;DHT22;51813;40.666;16.602;2022-12-18T09:11:25;16.60;64.60
65231;DHT22;51813;40.666;16.602;2022-12-18T09:13:52;16.60;64.50
65231;DHT22;51813;40.666;16.602;2022-12-18T09:16:19;16.60;64.60
65231;DHT22;51813;40.666;16.602;2022-12-18T09:18:46;16.70;64.60
65231;DHT22;51813;40.666;16.602;2022-12-18T09:21:14;16.70;64.50
65231;DHT22;51813;40.666;16.602;2022-12-18T09:23:40;16.70;64.60
65231;DHT22;51813;40.666;16.602;2022-12-18T09:26:07;16.70;64.60
65231;DHT22;51813;40.666;16.602;2022-12-18T09:28:33;16.70;64.50
65231;DHT22;51813;40.666;16.602;2022-12-18T09:30:59;16.60;64.90
65231;DHT22;51813;40.666;16.602;2022-12-18T09:33:28;16.70;64.70
65231;DHT22;51813;40.666;16.602;2022-12-18T09:35:54;16.70;64.60
65231;DHT22;51813;40.666;16.602;2022-12-18T09:38:19;16.70;64.90
65231;DHT22;51813;40.666;16.602;2022-12-18T09:40:51;16.70;64.60
65231;DHT22;51813;40.666;16.602;2022-12-18T09:43:21;16.70;64.50
65231;DHT22;51813;40.666;16.602;2022-12-18T09:45:53;16.70;64.50
65231;DHT22;51813;40.666;16.602;2022-12-18T09:48:27;16.70;64.50
65231;DHT22;51813;40.666;16.602;2022-12-18T09:51:00;16.70;64.60
65231;DHT22;51813;40.666;16.602;2022-12-18T09:53:29;16.70;64.60
65231;DHT22;51813;40.666;16.602;2022-12-18T09:55:57;16.70;64.60
65231;DHT22;51813;40.666;16.602;2022-12-18T09:58:31;16.70;64.60
65231;DHT22;51813;40.666;16.602;2022-12-18T10:00:58;16.70;64.60
65231;DHT22;51813;40.666;16.602;2022-12-18T10:03:24;16.70;64.60
65231;DHT22;51813;40.666;16.602;2022-12-18T10:06:05;16.70;64.80
65231;DHT22;51813;40.666;16.602;2022-12-18T10:08:39;16.70;64.50
65231;DHT22;51813;40.666;16.602;2022-12-18T10:19:49;16.70;64.60
65231;DHT22;51813;40.666;16.602;2022-12-18T10:27:27;16.80;64.40
65231;DHT22;51813;40.666;16.602;2022-12-18T10:29:54;16.80;64.50
65231;DHT22;51813;40.666;16.602;2022-12-18T10:32:27;16.80;64.50
65231;DHT22;51813;40.666;16.602;2022-12-18T10:34:55;16.70;64.40
65231;DHT22;51813;40.666;16.602;2022-12-18T10:37:24;16.80;64.50
65231;DHT22;51813;40.666;16.602;2022-12-18T10:42:34;16.80;64.60
65231;DHT22;51813;40.666;16.602;2022-12-18T10:47:34;16.80;64.70
65231;DHT22;51813;40.666;16.602;2022-12-18T10:50:01;16.80;65.20
65231;DHT22;51813;40.666;16.602;2022-12-18T10:52:27;16.80;64.50
65231;DHT22;51813;40.666;16.602;2022-12-18T10:54:55;16.80;64.20
65231;DHT22;51813;40.666;16.602;2022-12-18T10:59:53;16.80;64.20
65231;DHT22;51813;40.666;16.602;2022-12-18T11:02:38;16.80;64.30
65231;DHT22;51813;40.666;16.602;2022-12-18T11:05:33;16.80;64.60
65231;DHT22;51813;40.666;16.602;2022-12-18T11:08:00;16.80;64.30
65231;DHT22;51813;40.666;16.602;2022-12-18T11:10:46;16.80;64.30
65231;DHT22;51813;40.666;16.602;2022-12-18T11:13:23;16.80;64.50
65231;DHT22;51813;40.666;16.602;2022-12-18T11:15:50;16.80;64.40
65231;DHT22;51813;40.666;16.602;2022-12-18T11:18:26;16.80;64.50
65231;DHT22;51813;40.666;16.602;2022-12-18T11:21:08;16.80;64.50
65231;DHT22;51813;40.666;16.602;2022-12-18T11:23:35;16.80;64.40
65231;DHT22;51813;40.666;16.602;2022-12-18T11:26:03;16.80;64.50
65231;DHT22;51813;40.666;16.602;2022-12-18T11:36:39;16.80;64.50
65231;DHT22;51813;40.666;16.602;2022-12-18T11:39:17;16.80;64.50
65231;DHT22;51813;40.666;16.602;2022-12-18T11:44:54;16.80;64.60
65231;DHT22;51813;40.666;16.602;2022-12-18T11:47:31;16.80;64.60
65231;DHT22;51813;40.666;16.602;2022-12-18T11:50:20;16.80;64.60
65231;DHT22;51813;40.666;16.602;2022-12-18T11:52:47;16.80;64.60
65231;DHT22;51813;40.666;16.602;2022-12-18T11:55:16;16.80;64.60
65231;DHT22;51813;40.666;16.602;2022-12-18T11:57:58;16.80;64.80
65231;DHT22;51813;40.666;16.602;2022-12-18T12:00:25;16.80;65.00
65231;DHT22;51813;40.666;16.602;2022-12-18T12:14:02;16.80;65.10
65231;DHT22;51813;40.666;16.602;2022-12-18T12:16:41;16.80;65.20
65231;DHT22;51813;40.666;16.602;2022-12-18T12:27:54;16.80;64.80
65231;DHT22;51813;40.666;16.602;2022-12-18T12:38:58;16.80;64.90
65231;DHT22;51813;40.666;16.602;2022-12-18T12:41:23;16.80;64.90
65231;DHT22;51813;40.666;16.602;2022-12-18T12:44:15;16.80;64.50
65231;DHT22;51813;40.666;16.602;2022-12-18T12:46:42;16.80;64.60
65231;DHT22;51813;40.666;16.602;2022-12-18T12:49:20;16.80;64.70
65231;DHT22;51813;40.666;16.602;2022-12-18T12:51:56;16.80;64.60
65231;DHT22;51813;40.666;16.602;2022-12-18T12:54:25;16.80;65.10
65231;DHT22;51813;40.666;16.602;2022-12-18T12:57:23;16.90;64.60
65231;DHT22;51813;40.666;16.602;2022-12-18T13:07:57;16.80;64.70
65231;DHT22;51813;40.666;16.602;2022-12-18T13:10:25;16.80;64.60
65231;DHT22;51813;40.666;16.602;2022-12-18T13:13:12;16.80;64.40
65231;DHT22;51813;40.666;16.602;2022-12-18T13:20:42;16.80;64.40
65231;DHT22;51813;40.666;16.602;2022-12-18T13:25:53;16.70;64.20
65231;DHT22;51813;40.666;16.602;2022-12-18T13:34:20;16.70;64.10
65231;DHT22;51813;40.666;16.602;2022-12-18T13:36:47;16.70;63.90
65231;DHT22;51813;40.666;16.602;2022-12-18T13:44:38;16.70;63.90
65231;DHT22;51813;40.666;16.602;2022-12-18T13:47:27;16.70;63.80
65231;DHT22;51813;40.666;16.602;2022-12-18T13:49:56;16.70;63.80
65231;DHT22;51813;40.666;16.602;2022-12-18T13:52:25;16.70;63.90
65231;DHT22;51813;40.666;16.602;2022-12-18T13:54:56;16.70;63.70
65231;DHT22;51813;40.666;16.602;2022-12-18T13:57:28;16.70;63.40
65231;DHT22;51813;40.666;16.602;2022-12-18T13:59:55;16.70;63.40
65231;DHT22;51813;40.666;16.602;2022-12-18T14:02:24;16.70;63.40
65231;DHT22;51813;40.666;16.602;2022-12-18T14:04:51;16.60;63.40
65231;DHT22;51813;40.666;16.602;2022-12-18T14:10:00;16.60;63.00
65231;DHT22;51813;40.666;16.602;2022-12-18T14:12:33;16.60;63.10
65231;DHT22;51813;40.666;16.602;2022-12-18T14:17:55;16.70;63.00
65231;DHT22;51813;40.666;16.602;2022-12-18T14:20:22;16.70;63.20
65231;DHT22;51813;40.666;16.602;2022-12-18T14:22:49;16.70;63.20
65231;DHT22;51813;40.666;16.602;2022-12-18T14:25:21;16.70;63.10
65231;DHT22;51813;40.666;16.602;2022-12-18T14:27:59;16.70;63.00
65231;DHT22;51813;40.666;16.602;2022-12-18T14:30:30;16.70;62.90
65231;DHT22;51813;40.666;16.602;2022-12-18T14:33:16;16.70;63.00
65231;DHT22;51813;40.666;16.602;2022-12-18T14:35:59;16.70;62.90
65231;DHT22;51813;40.666;16.602;2022-12-18T14:38:37;16.70;63.20
65231;DHT22;51813;40.666;16.602;2022-12-18T14:41:10;16.70;62.90
65231;DHT22;51813;40.666;16.602;2022-12-18T14:43:38;16.70;63.40
65231;DHT22;51813;40.666;16.602;2022-12-18T14:48:55;16.70;63.00
65231;DHT22;51813;40.666;16.602;2022-12-18T14:51:24;16.70;63.50
65231;DHT22;51813;40.666;16.602;2022-12-18T14:53:57;16.70;63.70
65231;DHT22;51813;40.666;16.602;2022-12-18T14:56:24;16.70;63.00
65231;DHT22;51813;40.666;16.602;2022-12-18T14:58:58;16.70;63.30
65231;DHT22;51813;40.666;16.602;2022-12-18T15:01:28;16.70;62.80
65231;DHT22;51813;40.666;16.602;2022-12-18T15:03:56;16.70;63.60
65231;DHT22;51813;40.666;16.602;2022-12-18T15:08:56;16.60;62.60
65231;DHT22;51813;40.666;16.602;2022-12-18T15:14:40;16.60;62.50
65231;DHT22;51813;40.666;16.602;2022-12-18T15:17:21;16.60;62.30
65231;DHT22;51813;40.666;16.602;2022-12-18T15:19:49;16.60;62.30
65231;DHT22;51813;40.666;16.602;2022-12-18T15:24:47;16.60;62.10
65231;DHT22;51813;40.666;16.602;2022-12-18T15:32:39;16.60;62.20
65231;DHT22;51813;40.666;16.602;2022-12-18T15:35:16;16.60;61.90
65231;DHT22;51813;40.666;16.602;2022-12-18T15:37:43;16.60;61.90
65231;DHT22;51813;40.666;16.602;2022-12-18T15:40:21;16.60;62.20
65231;DHT22;51813;40.666;16.602;2022-12-18T15:42:47;16.60;62.10
65231;DHT22;51813;40.666;16.602;2022-12-18T15:45:32;16.60;62.20
65231;DHT22;51813;40.666;16.602;2022-12-18T15:47:59;16.50;62.30
65231;DHT22;51813;40.666;16.602;2022-12-18T15:50:25;16.50;62.70
65231;DHT22;51813;40.666;16.602;2022-12-18T15:52:53;16.50;62.20
65231;DHT22;51813;40.666;16.602;2022-12-18T15:55:22;16.50;62.20
65231;DHT22;51813;40.666;16.602;2022-12-18T15:58:08;16.60;62.10
65231;DHT22;51813;40.666;16.602;2022-12-18T16:00:36;16.60;62.10
65231;DHT22;51813;40.666;16.602;2022-12-18T16:03:03;16.60;62.10
65231;DHT22;51813;40.666;16.602;2022-12-18T16:05:30;16.60;62.50
65231;DHT22;51813;40.666;16.602;2022-12-18T16:07:55;16.60;62.30
65231;DHT22;51813;40.666;16.602;2022-12-18T16:10:21;16.60;62.20
65231;DHT22;51813;40.666;16.602;2022-12-18T16:12:47;16.60;62.50
65231;DHT22;51813;40.666;16.602;2022-12-18T16:15:14;16.50;62.10
65231;DHT22;51813;40.666;16.602;2022-12-18T16:17:42;16.50;62.40
65231;DHT22;51813;40.666;16.602;2022-12-18T16:20:20;16.50;62.30
65231;DHT22;51813;40.666;16.602;2022-12-18T16:22:47;16.60;62.40
65231;DHT22;51813;40.666;16.602;2022-12-18T16:25:25;16.50;62.10
65231;DHT22;51813;40.666;16.602;2022-12-18T16:27:51;16.50;61.80
65231;DHT22;51813;40.666;16.602;2022-12-18T16:30:21;16.50;62.20
65231;DHT22;51813;40.666;16.602;2022-12-18T16:32:47;16.50;61.80
65231;DHT22;51813;40.666;16.602;2022-12-18T16:35:15;16.50;62.40
65231;DHT22;51813;40.666;16.602;2022-12-18T16:37:41;16.50;62.00
65231;DHT22;51813;40.666;16.602;2022-12-18T16:40:09;16.50;61.60
65231;DHT22;51813;40.666;16.602;2022-12-18T16:42:36;16.50;61.80
65231;DHT22;51813;40.666;16.602;2022-12-18T16:45:04;16.50;61.80
65231;DHT22;51813;40.666;16.602;2022-12-18T16:47:30;16.50;61.60
65231;DHT22;51813;40.666;16.602;2022-12-18T16:49:56;16.50;61.50
65231;DHT22;51813;40.666;16.602;2022-12-18T16:52:22;16.50;61.30
65231;DHT22;51813;40.666;16.602;2022-12-18T16:54:47;16.50;61.30
65231;DHT22;51813;40.666;16.602;2022-12-18T16:57:15;16.60;61.50
65231;DHT22;51813;40.666;16.602;2022-12-18T16:59:41;16.60;61.30
65231;DHT22;51813;40.666;16.602;2022-12-18T17:02:21;16.60;61.20
65231;DHT22;51813;40.666;16.602;2022-12-18T17:04:47;16.60;61.20
65231;DHT22;51813;40.666;16.602;2022-12-18T17:07:13;16.60;61.30
65231;DHT22;51813;40.666;16.602;2022-12-18T17:09:39;16.60;61.20
65231;DHT22;51813;40.666;16.602;2022-12-18T17:12:06;16.60;61.40
65231;DHT22;51813;40.666;16.602;2022-12-18T17:14:32;16.60;61.30
65231;DHT22;51813;40.666;16.602;2022-12-18T17:16:58;16.50;61.20
65231;DHT22;51813;40.666;16.602;2022-12-18T17:19:28;16.60;61.50
65231;DHT22;51813;40.666;16.602;2022-12-18T17:21:54;16.60;61.70
65231;DHT22;51813;40.666;16.602;2022-12-18T17:24:21;16.60;62.00
65231;DHT22;51813;40.666;16.602;2022-12-18T17:26:46;16.60;61.40
65231;DHT22;51813;40.666;16.602;2022-12-18T17:29:15;16.60;61.30
65231;DHT22;51813;40.666;16.602;2022-12-18T17:31:41;16.60;61.50
65231;DHT22;51813;40.666;16.602;2022-12-18T17:34:09;16.60;62.20
65231;DHT22;51813;40.666;16.602;2022-12-18T17:36:35;16.60;61.20
65231;DHT22;51813;40.666;16.602;2022-12-18T17:39:02;16.60;61.90
65231;DHT22;51813;40.666;16.602;2022-12-18T17:41:29;16.60;61.90